Terminal Aerodrome Forecast
Issued by NWS Wilmington, OH

Current Version | Previous Version | Graphics & Text | Print | Product List | Glossary On
Versions: 1 2 3 4 5 6 7 8 9 10 11 12 13 14 15 16 17 18 19 20 21 22 23 24 25 26 27 28 29 30 31 32 33 34 35
000
FTUS41 KILN 240133 AAC
TAFILN
TAF AMD
KILN 240133Z 2402/2424 26005KT P6SM VCSH SCT005 BKN060 OVC100
     FM240300 26006KT P6SM VCSH SCT005 OVC035
     FM240600 32007KT 4SM BR SCT035 BKN220
     FM241300 28009KT P6SM SCT250
     FM241700 28012G20KT P6SM SCT090=

USA.gov is the U.S. government's official web portal to all federal, state and local government web resources and services.